createdAt,value
2019-02-09T00:00:56.946Z,10.60
2019-02-09T00:03:25.898Z,10.40
2019-02-09T00:05:53.875Z,10.50
2019-02-09T00:08:21.776Z,10.60
2019-02-09T00:10:49.902Z,10.40
2019-02-09T00:13:17.850Z,10.70
2019-02-09T00:15:46.574Z,10.30
2019-02-09T00:18:14.495Z,10.30
2019-02-09T00:20:42.413Z,10.40
2019-02-09T00:23:10.396Z,10.50
2019-02-09T00:25:38.750Z,10.30
2019-02-09T00:28:06.695Z,10.30
2019-02-09T00:30:34.725Z,10.30
2019-02-09T00:33:02.879Z,10.20
2019-02-09T00:35:30.924Z,10.20
2019-02-09T00:37:58.873Z,10.30
2019-02-09T00:40:26.967Z,10.60
2019-02-09T00:42:55.704Z,10.10
2019-02-09T00:45:23.694Z,10.00
2019-02-09T00:47:51.881Z,10.00
2019-02-09T00:50:20.898Z,10.10
2019-02-09T00:52:48.815Z,10.30
2019-02-09T00:55:17.078Z,10.20
2019-02-09T00:57:45.164Z,10.50
2019-02-09T01:00:17.183Z,10.20
2019-02-09T01:02:45.124Z,10.00
2019-02-09T01:05:15.347Z,9.90
2019-02-09T01:07:43.244Z,10.10
2019-02-09T01:10:12.830Z,10.20
2019-02-09T01:12:41.101Z,9.90
2019-02-09T01:15:13.283Z,9.90
2019-02-09T01:17:41.158Z,9.90
2019-02-09T01:20:14.159Z,10.00
2019-02-09T01:22:42.200Z,10.00
2019-02-09T01:25:11.072Z,9.80
2019-02-09T01:27:39.129Z,9.80
2019-02-09T01:30:11.006Z,10.00
2019-02-09T01:32:38.988Z,9.80
2019-02-09T01:35:07.576Z,9.40
2019-02-09T01:37:35.490Z,9.10
2019-02-09T01:40:06.183Z,9.00
2019-02-09T01:42:34.139Z,8.90
2019-02-09T01:45:02.202Z,8.90
2019-02-09T01:47:30.083Z,8.80
2019-02-09T01:49:58.372Z,8.80
2019-02-09T01:52:26.320Z,8.80
2019-02-09T01:54:54.372Z,8.40
2019-02-09T01:57:22.347Z,8.30
2019-02-09T01:59:51.566Z,8.50
2019-02-09T02:02:19.503Z,8.50
2019-02-09T02:04:47.690Z,8.20
2019-02-09T02:07:15.996Z,8.30
2019-02-09T02:09:44.025Z,8.00
2019-02-09T02:12:12.999Z,8.10
2019-02-09T02:14:40.979Z,8.20
2019-02-09T02:17:09.098Z,7.90
2019-02-09T02:19:37.086Z,7.90
2019-02-09T02:22:05.071Z,7.70
2019-02-09T02:24:33.062Z,8.00
2019-02-09T02:27:00.975Z,7.90
2019-02-09T02:29:28.886Z,8.00
2019-02-09T02:31:56.896Z,8.10
2019-02-09T02:34:24.838Z,8.00
2019-02-09T02:36:52.742Z,8.10
2019-02-09T02:39:20.695Z,8.40
2019-02-09T02:41:48.774Z,8.20
2019-02-09T02:44:16.669Z,8.00
2019-02-09T02:46:44.655Z,8.20
2019-02-09T02:49:12.664Z,8.10
2019-02-09T02:51:41.072Z,8.10
2019-02-09T02:54:09.101Z,8.30
2019-02-09T02:56:37.232Z,8.20
2019-02-09T02:59:08.220Z,8.30
2019-02-09T03:01:36.198Z,8.30
2019-02-09T03:04:04.418Z,8.50
2019-02-09T03:06:32.360Z,8.60
2019-02-09T03:09:00.309Z,8.20
2019-02-09T03:11:28.284Z,8.50
2019-02-09T03:13:57.359Z,8.40
2019-02-09T03:16:25.335Z,8.30
2019-02-09T03:18:53.219Z,8.40
2019-02-09T03:21:21.281Z,8.50
2019-02-09T03:23:49.293Z,8.30
2019-02-09T03:26:17.236Z,8.30
2019-02-09T03:28:45.315Z,8.30
2019-02-09T03:31:13.286Z,8.40
2019-02-09T03:33:41.242Z,8.40
2019-02-09T03:36:09.272Z,8.50
2019-02-09T03:38:37.149Z,8.20
2019-02-09T03:41:05.339Z,8.50
2019-02-09T03:43:33.220Z,8.20
2019-02-09T03:46:02.174Z,8.40
2019-02-09T03:48:30.142Z,8.40
2019-02-09T03:50:57.994Z,8.40
2019-02-09T03:53:25.921Z,8.40
2019-02-09T03:55:54.629Z,8.60
2019-02-09T03:58:22.588Z,8.50
2019-02-09T04:00:55.484Z,8.70
2019-02-09T04:03:20.729Z,8.60
2019-02-09T04:05:48.646Z,8.70
2019-02-09T04:08:16.589Z,8.80
2019-02-09T04:10:44.493Z,8.90
2019-02-09T04:13:12.423Z,8.90
2019-02-09T04:15:40.301Z,8.70
2019-02-09T04:18:08.254Z,8.60
2019-02-09T04:20:36.160Z,8.90
2019-02-09T04:23:04.086Z,8.90
2019-02-09T04:25:31.964Z,8.80
2019-02-09T04:27:59.854Z,8.70
2019-02-09T04:30:29.642Z,8.60
2019-02-09T04:32:57.634Z,8.60
2019-02-09T04:35:25.695Z,8.60
2019-02-09T04:37:53.671Z,8.90
2019-02-09T04:40:24.469Z,8.80
2019-02-09T04:42:53.559Z,8.60
2019-02-09T04:45:21.441Z,8.40
2019-02-09T04:47:49.319Z,8.90
2019-02-09T04:50:17.296Z,8.70
2019-02-09T04:52:45.169Z,8.70
2019-02-09T04:55:16.373Z,8.70
2019-02-09T04:57:44.307Z,8.60
2019-02-09T05:00:15.207Z,8.50
2019-02-09T05:02:43.067Z,8.60
2019-02-09T05:05:10.913Z,8.80
2019-02-09T05:07:38.816Z,8.60
2019-02-09T05:10:07.966Z,8.80
2019-02-09T05:12:35.916Z,9.10
2019-02-09T05:15:05.673Z,9.20
2019-02-09T05:17:33.496Z,9.30
2019-02-09T05:20:01.353Z,9.30
2019-02-09T05:22:29.305Z,9.30
2019-02-09T05:24:57.173Z,8.90
2019-02-09T05:27:25.013Z,9.00
2019-02-09T05:29:52.868Z,8.80
2019-02-09T05:32:20.805Z,8.70
2019-02-09T05:34:48.744Z,8.90
2019-02-09T05:37:16.593Z,8.90
2019-02-09T05:39:44.543Z,8.60
2019-02-09T05:42:12.441Z,8.70
2019-02-09T05:44:40.322Z,9.10
2019-02-09T05:47:08.162Z,9.00
2019-02-09T05:49:36.216Z,8.90
2019-02-09T05:52:04.203Z,9.20
2019-02-09T05:54:32.863Z,8.90
2019-02-09T05:57:01.672Z,9.30
2019-02-09T05:59:30.087Z,9.10
2019-02-09T06:01:57.957Z,9.20
2019-02-09T06:04:25.863Z,9.40
2019-02-09T06:06:53.797Z,9.20
2019-02-09T06:09:21.775Z,9.40
2019-02-09T06:11:49.627Z,9.20
2019-02-09T06:14:17.549Z,9.50
2019-02-09T06:16:45.468Z,9.20
2019-02-09T06:19:13.378Z,9.30
2019-02-09T06:21:41.300Z,9.00
2019-02-09T06:24:09.180Z,9.00
2019-02-09T06:26:37.449Z,9.10
2019-02-09T06:29:05.349Z,9.10
2019-02-09T06:31:40.550Z,8.80
2019-02-09T06:34:03.109Z,8.70
2019-02-09T06:36:30.960Z,8.90
2019-02-09T06:38:58.810Z,8.80
2019-02-09T06:41:26.689Z,8.80
2019-02-09T06:43:54.570Z,9.10
2019-02-09T06:46:22.472Z,9.00
2019-02-09T06:48:50.617Z,9.10
2019-02-09T06:51:18.570Z,8.80
2019-02-09T06:53:46.500Z,8.90
2019-02-09T06:56:14.464Z,9.00
2019-02-09T06:58:42.489Z,8.90
2019-02-09T07:01:10.497Z,8.90
2019-02-09T07:03:38.483Z,9.00
2019-02-09T07:06:06.398Z,9.00
2019-02-09T07:08:34.311Z,9.00
2019-02-09T07:11:02.400Z,9.00
2019-02-09T07:13:30.496Z,9.00
2019-02-09T07:15:58.398Z,9.00
2019-02-09T07:18:26.321Z,9.20
2019-02-09T07:20:54.233Z,9.30
2019-02-09T07:23:23.034Z,9.10
2019-02-09T07:25:51.333Z,9.00
2019-02-09T07:28:19.245Z,9.00
2019-02-09T07:30:47.207Z,9.30
2019-02-09T07:33:15.128Z,9.30
2019-02-09T07:35:43.836Z,9.20
2019-02-09T07:38:11.817Z,9.50
2019-02-09T07:40:39.863Z,9.50
2019-02-09T07:43:07.801Z,9.60
2019-02-09T07:45:35.801Z,9.50
2019-02-09T07:48:04.485Z,9.70
2019-02-09T07:50:32.547Z,9.60
2019-02-09T07:53:00.556Z,9.50
2019-02-09T07:55:28.534Z,9.70
2019-02-09T07:57:59.255Z,9.90
2019-02-09T08:00:28.192Z,9.90
2019-02-09T08:02:56.527Z,9.80
2019-02-09T08:05:26.622Z,10.20
2019-02-09T08:07:54.863Z,9.60
2019-02-09T08:10:25.944Z,10.00
2019-02-09T08:12:54.363Z,9.80
2019-02-09T08:15:24.738Z,10.20
2019-02-09T08:17:53.032Z,10.20
2019-02-09T08:20:23.118Z,10.20
2019-02-09T08:22:51.294Z,10.10
2019-02-09T08:25:23.393Z,10.40
2019-02-09T08:27:51.884Z,10.30
2019-02-09T08:30:35.558Z,10.10
2019-02-09T08:33:04.614Z,10.20
2019-02-09T08:35:32.569Z,10.40
2019-02-09T08:38:00.515Z,10.30
2019-02-09T08:40:28.520Z,10.60
2019-02-09T08:42:56.647Z,10.60
2019-02-09T08:45:24.723Z,10.20
2019-02-09T08:47:53.445Z,10.30
2019-02-09T08:50:30.710Z,10.30
2019-02-09T08:52:58.683Z,10.50
2019-02-09T08:55:26.804Z,10.10
2019-02-09T08:57:56.073Z,10.60
2019-02-09T09:00:26.819Z,10.40
2019-02-09T09:02:54.735Z,10.40
2019-02-09T09:05:22.794Z,10.20
2019-02-09T09:07:51.084Z,10.30
2019-02-09T09:10:21.750Z,10.30
2019-02-09T09:12:49.817Z,10.50
2019-02-09T09:15:22.054Z,11.00
2019-02-09T09:17:52.117Z,10.40
2019-02-09T09:20:24.667Z,10.30
2019-02-09T09:22:53.017Z,10.50
2019-02-09T09:25:21.033Z,10.60
2019-02-09T09:27:48.904Z,10.70
2019-02-09T09:30:20.003Z,11.00
2019-02-09T09:32:48.489Z,10.60
2019-02-09T09:35:16.543Z,10.80
2019-02-09T09:37:44.852Z,11.30
2019-02-09T09:40:20.793Z,11.00
2019-02-09T09:42:49.879Z,11.60
2019-02-09T09:45:21.846Z,11.20
2019-02-09T09:47:49.930Z,11.50
2019-02-09T09:50:19.750Z,11.50
2019-02-09T09:52:47.798Z,11.20
2019-02-09T09:55:15.864Z,11.60
2019-02-09T09:57:44.488Z,11.60
2019-02-09T10:00:14.773Z,11.80
2019-02-09T10:02:42.859Z,11.10
2019-02-09T10:05:10.987Z,11.40
2019-02-09T10:07:39.036Z,11.50
2019-02-09T10:10:10.626Z,11.50
2019-02-09T10:12:38.780Z,11.60
2019-02-09T10:15:09.736Z,11.80
2019-02-09T10:17:37.827Z,11.40
2019-02-09T10:20:10.031Z,12.00
2019-02-09T10:22:38.315Z,11.70
2019-02-09T10:25:06.688Z,11.50
2019-02-09T10:27:35.036Z,11.80
2019-02-09T10:30:05.381Z,11.60
2019-02-09T10:32:33.728Z,12.30
2019-02-09T10:35:01.822Z,12.00
2019-02-09T10:37:29.741Z,12.10
2019-02-09T10:39:57.735Z,11.90
2019-02-09T10:42:26.111Z,11.80
2019-02-09T10:44:54.208Z,11.90
2019-02-09T10:47:22.403Z,12.80
2019-02-09T10:49:50.474Z,12.20
2019-02-09T10:52:19.168Z,12.00
2019-02-09T10:54:47.126Z,12.50
2019-02-09T10:57:15.189Z,12.50
2019-02-09T10:59:43.187Z,12.00
2019-02-09T11:02:11.293Z,11.70
2019-02-09T11:04:39.259Z,12.00
2019-02-09T11:07:07.349Z,11.50
2019-02-09T11:09:35.348Z,11.70
2019-02-09T11:12:03.528Z,11.90
2019-02-09T11:14:33.553Z,11.80
2019-02-09T11:17:01.518Z,11.70
2019-02-09T11:19:29.521Z,12.00
2019-02-09T11:21:57.580Z,11.60
2019-02-09T11:24:25.633Z,11.80
2019-02-09T11:26:53.752Z,12.10
2019-02-09T11:29:21.794Z,12.40
2019-02-09T11:31:49.757Z,12.40
2019-02-09T11:34:17.838Z,12.70
2019-02-09T11:36:45.881Z,12.20
2019-02-09T11:39:13.844Z,12.00
2019-02-09T11:41:42.099Z,12.60
2019-02-09T11:44:11.156Z,12.50
2019-02-09T11:49:27.781Z,11.70
2019-02-09T11:51:55.752Z,12.70
2019-02-09T11:54:24.017Z,13.30
2019-02-09T11:56:52.175Z,12.40
2019-02-09T11:59:21.310Z,12.60
2019-02-09T12:01:49.532Z,12.40
2019-02-09T12:04:36.991Z,12.80
2019-02-09T12:07:17.948Z,12.00
2019-02-09T12:10:06.419Z,11.40
2019-02-09T12:12:47.669Z,11.80
2019-02-09T12:15:35.539Z,12.30
2019-02-09T12:18:17.434Z,11.60
2019-02-09T12:21:05.210Z,12.80
2019-02-09T12:23:49.466Z,12.60
2019-02-09T12:26:29.575Z,12.60
2019-02-09T12:28:57.582Z,12.70
2019-02-09T12:31:25.586Z,12.30
2019-02-09T12:34:13.149Z,12.40
2019-02-09T12:36:53.534Z,12.70
2019-02-09T12:39:42.102Z,12.20
2019-02-09T12:42:23.847Z,11.10
2019-02-09T12:45:12.768Z,12.00
2019-02-09T12:47:40.926Z,12.10
2019-02-09T12:50:10.947Z,11.80
2019-02-09T12:52:51.126Z,11.70
2019-02-09T12:55:19.327Z,12.20
2019-02-09T12:57:47.395Z,12.40
2019-02-09T13:00:25.054Z,12.10
2019-02-09T13:03:13.352Z,12.10
2019-02-09T13:06:00.800Z,12.10
2019-02-09T13:08:43.188Z,11.30
2019-02-09T13:11:32.190Z,12.40
2019-02-09T13:14:13.072Z,11.40
2019-02-09T13:17:00.513Z,11.30
2019-02-09T13:19:41.078Z,11.60
2019-02-09T13:22:28.836Z,12.20
2019-02-09T13:25:09.744Z,12.20
2019-02-09T13:27:57.368Z,11.10
2019-02-09T13:30:38.510Z,12.10
2019-02-09T13:33:26.092Z,11.80
2019-02-09T13:36:07.024Z,12.30
2019-02-09T13:38:54.660Z,11.30
2019-02-09T13:41:22.906Z,12.00
2019-02-09T13:43:51.096Z,11.80
2019-02-09T13:46:33.612Z,11.80
2019-02-09T13:49:01.877Z,12.00
2019-02-09T13:51:29.916Z,11.90
2019-02-09T13:54:10.652Z,12.00
2019-02-09T13:56:59.410Z,10.80
2019-02-09T13:59:41.528Z,12.10
2019-02-09T14:02:29.485Z,12.00
2019-02-09T14:05:10.937Z,12.10
2019-02-09T14:07:59.892Z,12.30
2019-02-09T14:10:40.874Z,11.30
2019-02-09T14:13:14.177Z,12.20
2019-02-09T14:16:08.160Z,12.40
2019-02-09T14:18:52.581Z,12.30
2019-02-09T14:21:34.659Z,12.20
2019-02-09T14:24:22.283Z,11.10
2019-02-09T14:27:02.743Z,10.90
2019-02-09T14:29:50.637Z,12.00
2019-02-09T14:32:32.795Z,11.20
2019-02-09T14:35:21.742Z,12.40
2019-02-09T14:38:02.357Z,12.30
2019-02-09T14:40:47.274Z,12.10
2019-02-09T14:43:35.751Z,12.30
2019-02-09T14:46:16.934Z,12.50
2019-02-09T14:49:05.123Z,11.90
2019-02-09T14:51:46.326Z,12.30
2019-02-09T14:54:15.345Z,12.40
2019-02-09T14:56:57.132Z,12.80
2019-02-09T14:59:44.704Z,11.20
2019-02-09T15:02:12.976Z,12.60
2019-02-09T15:05:01.721Z,12.10
2019-02-09T15:07:43.081Z,11.90
2019-02-09T15:10:30.822Z,11.80
2019-02-09T15:13:12.868Z,12.10
2019-02-09T15:16:39.415Z,11.30
2019-02-09T15:19:21.714Z,11.80
2019-02-09T15:22:09.303Z,12.00
2019-02-09T15:24:50.154Z,10.60
2019-02-09T15:27:37.882Z,12.00
2019-02-09T15:30:19.752Z,11.90
2019-02-09T15:33:07.521Z,11.90
2019-02-09T15:35:49.502Z,11.50
2019-02-09T15:38:17.497Z,11.70
2019-02-09T15:41:00.500Z,11.60
2019-02-09T15:43:50.374Z,11.80
2019-02-09T15:46:32.360Z,11.50
2019-02-09T15:49:19.809Z,11.90
2019-02-09T15:52:00.359Z,11.40
2019-02-09T15:54:47.796Z,10.50
2019-02-09T15:57:28.667Z,11.30
2019-02-09T16:00:18.081Z,11.00
2019-02-09T16:02:46.113Z,10.90
2019-02-09T16:05:14.559Z,10.90
2019-02-09T16:07:42.900Z,11.10
2019-02-09T16:10:11.444Z,10.90
2019-02-09T16:12:39.553Z,10.90
2019-02-09T16:15:11.591Z,10.90
2019-02-09T16:17:39.592Z,11.20
2019-02-09T16:20:10.946Z,11.50
2019-02-09T16:22:39.822Z,11.20
2019-02-09T16:25:28.158Z,11.50
2019-02-09T16:28:08.868Z,11.30
2019-02-09T16:30:56.509Z,11.70
2019-02-09T16:33:38.057Z,10.50
2019-02-09T16:36:28.102Z,10.40
2019-02-09T16:39:08.956Z,11.50
2019-02-09T16:41:38.985Z,11.50
2019-02-09T16:44:07.439Z,11.50
2019-02-09T16:46:50.638Z,11.10
2019-02-09T16:49:39.804Z,11.30
2019-02-09T16:52:20.976Z,11.30
2019-02-09T16:58:04.133Z,10.40
2019-02-09T17:00:46.511Z,11.70
2019-02-09T17:03:34.585Z,11.70
2019-02-09T17:06:16.845Z,10.70
2019-02-09T17:09:07.211Z,11.40
2019-02-09T17:11:53.519Z,11.30
2019-02-09T17:18:11.814Z,11.30
2019-02-09T17:20:53.768Z,10.40
2019-02-09T17:23:43.288Z,11.50
2019-02-09T17:26:29.017Z,11.10
2019-02-09T17:29:17.607Z,10.70
2019-02-09T17:32:01.292Z,11.50
2019-02-09T17:34:49.826Z,10.70
2019-02-09T17:37:19.782Z,11.40
2019-02-09T17:40:27.768Z,10.10
2019-02-09T17:42:59.738Z,11.60
2019-02-09T17:45:39.740Z,11.00
2019-02-09T17:48:08.952Z,11.40
2019-02-09T17:50:56.788Z,11.20
2019-02-09T17:53:38.831Z,11.20
2019-02-09T17:56:26.474Z,11.20
2019-02-09T17:58:55.762Z,11.20
2019-02-09T18:01:43.937Z,11.00
2019-02-09T18:04:25.815Z,11.00
2019-02-09T18:10:35.346Z,11.30
2019-02-09T18:13:16.515Z,10.70
2019-02-09T18:16:05.355Z,11.60
2019-02-09T18:18:54.950Z,11.70
2019-02-09T18:21:43.124Z,11.50
2019-02-09T18:24:26.412Z,11.50
2019-02-09T18:27:14.024Z,10.60
2019-02-09T18:29:55.075Z,10.90
2019-02-09T18:32:45.288Z,11.40
2019-02-09T18:35:26.763Z,11.70
2019-02-09T18:37:55.325Z,11.70
2019-02-09T18:40:24.561Z,11.20
2019-02-09T18:42:53.341Z,11.70
2019-02-09T18:45:24.970Z,12.00
2019-02-09T18:48:06.805Z,11.20
2019-02-09T18:50:54.890Z,11.50
2019-02-09T18:53:36.251Z,11.50
2019-02-09T18:56:24.351Z,10.90
2019-02-09T19:02:00.401Z,10.40
2019-02-09T19:04:29.469Z,11.20
2019-02-09T19:06:59.957Z,10.90
2019-02-09T19:09:28.654Z,11.00
2019-02-09T19:11:57.060Z,11.40
2019-02-09T19:14:29.551Z,10.90
2019-02-09T19:17:11.593Z,10.90
2019-02-09T19:19:55.684Z,10.90
2019-02-09T19:22:43.817Z,10.60
2019-02-09T19:25:31.302Z,10.60
2019-02-09T19:28:00.113Z,10.90
2019-02-09T19:30:29.007Z,11.40
2019-02-09T19:32:57.727Z,11.30
2019-02-09T19:35:26.473Z,10.90
2019-02-09T19:38:09.002Z,9.80
2019-02-09T19:40:57.054Z,10.70
2019-02-09T19:43:40.214Z,11.30
2019-02-09T19:46:28.600Z,11.10
2019-02-09T19:49:09.421Z,10.70
2019-02-09T19:52:00.664Z,10.80
2019-02-09T19:54:29.475Z,10.80
2019-02-09T19:56:59.887Z,10.80
2019-02-09T19:59:29.999Z,10.80
2019-02-09T20:02:01.358Z,11.00
2019-02-09T20:04:29.999Z,10.80
2019-02-09T20:07:18.342Z,10.30
2019-02-09T20:15:44.862Z,11.10
2019-02-09T20:18:30.983Z,11.00
2019-02-09T20:21:19.753Z,10.50
2019-02-09T20:23:52.304Z,10.80
2019-02-09T20:26:30.381Z,10.80
2019-02-09T20:28:57.093Z,10.70
2019-02-09T20:31:26.732Z,10.70
2019-02-09T20:33:55.450Z,11.00
2019-02-09T20:36:25.293Z,10.20
2019-02-09T20:38:55.703Z,10.40
2019-02-09T20:41:27.110Z,10.60
2019-02-09T20:43:57.226Z,10.50
2019-02-09T20:46:25.503Z,10.50
2019-02-09T20:48:54.492Z,10.10
2019-02-09T20:51:24.311Z,10.40
2019-02-09T20:53:54.976Z,10.30
2019-02-09T20:56:23.590Z,10.50
2019-02-09T20:58:53.918Z,10.50
2019-02-09T21:01:22.325Z,10.40
2019-02-09T21:04:03.205Z,9.60
2019-02-09T21:06:31.820Z,10.30
2019-02-09T21:09:00.517Z,10.40
2019-02-09T21:11:29.683Z,10.40
2019-02-09T21:14:10.800Z,8.90
2019-02-09T21:16:58.817Z,10.10
2019-02-09T21:19:39.907Z,9.80
2019-02-09T21:22:28.243Z,10.30
2019-02-09T21:24:56.633Z,9.90
2019-02-09T21:27:27.441Z,10.30
2019-02-09T21:29:58.069Z,10.10
2019-02-09T21:32:26.842Z,10.00
2019-02-09T21:35:58.056Z,10.10
2019-02-09T21:37:51.932Z,9.80
2019-02-09T21:40:34.267Z,10.10
2019-02-09T21:43:16.460Z,10.10
2019-02-09T21:46:04.984Z,10.00
2019-02-09T21:48:33.569Z,10.00
2019-02-09T21:51:21.821Z,9.80
2019-02-09T21:54:03.649Z,9.80
2019-02-09T21:56:54.570Z,10.70
2019-02-09T21:59:37.552Z,9.80
2019-02-09T22:02:42.369Z,9.60
2019-02-09T22:05:21.790Z,10.00
2019-02-09T22:08:19.258Z,10.40
2019-02-09T22:10:56.180Z,9.30
2019-02-09T22:13:44.580Z,9.80
2019-02-09T22:16:13.323Z,10.90
2019-02-09T22:18:52.395Z,11.00
2019-02-09T22:21:40.559Z,11.00
2019-02-09T22:24:21.947Z,9.70
2019-02-09T22:27:10.222Z,10.70
2019-02-09T22:29:50.989Z,10.00
2019-02-09T22:32:19.518Z,10.80
2019-02-09T22:35:08.690Z,10.90
2019-02-09T22:37:37.065Z,10.70
2019-02-09T22:40:26.757Z,11.10
2019-02-09T22:43:07.411Z,11.20
2019-02-09T22:45:55.100Z,11.00
2019-02-09T22:48:23.454Z,10.80
2019-02-09T22:51:12.954Z,10.90
2019-02-09T22:53:54.145Z,10.00
2019-02-09T22:56:41.899Z,11.00
2019-02-09T22:59:10.032Z,10.30
2019-02-09T23:01:53.070Z,10.30
2019-02-09T23:04:57.007Z,10.70
2019-02-09T23:08:04.627Z,10.40
2019-02-09T23:10:33.151Z,10.30
2019-02-09T23:13:14.111Z,9.80
2019-02-09T23:15:42.912Z,9.90
2019-02-09T23:18:11.786Z,10.10
2019-02-09T23:20:39.934Z,10.00
2019-02-09T23:23:08.145Z,10.10
2019-02-09T23:25:55.598Z,10.00
2019-02-09T23:28:23.749Z,10.20
2019-02-09T23:31:04.057Z,10.40
2019-02-09T23:33:33.379Z,10.30
2019-02-09T23:36:01.710Z,10.50
2019-02-09T23:38:50.257Z,10.60
2019-02-09T23:41:31.745Z,10.60
2019-02-09T23:44:19.383Z,10.00
2019-02-09T23:47:00.024Z,10.60
2019-02-09T23:49:47.564Z,10.70
2019-02-09T23:52:28.006Z,10.70
2019-02-09T23:55:17.914Z,10.70
2019-02-09T23:57:58.455Z,10.70
